Terminal Aerodrome Forecast
Issued by NWS

Home | Current Version | Previous Version | Text Only | Print | Product List | Glossary On
Versions: 1 2 3 4 5 6 7 8 9 10 11 12 13 14 15 16 17 18 19
123
FTUS43 KPAH 120832 AAA
TAFCGI
TAF AMD
KCGI 120832Z 1209/1306 06005KT P6SM OVC100
      TEMPO 1209/1211 -SN FEW020 BKN060 OVC080
     FM121315 34004KT P6SM FEW030 BKN045
     FM121730 34006KT P6SM BKN015 OVC025
     FM130030 34012KT P6SM SKC=

USA.gov is the U.S. government's official web portal to all federal, state and local government web resources and services.